createdAt,value
2019-02-12T00:05:29.555Z,1.66
2019-02-12T00:11:24.519Z,1.65
2019-02-12T00:17:19.551Z,1.81
2019-02-12T00:23:14.533Z,2.45
2019-02-12T00:29:09.592Z,2.06
2019-02-12T00:35:04.591Z,2.1
2019-02-12T00:40:59.532Z,1.78
2019-02-12T00:46:54.572Z,1.69
2019-02-12T00:52:49.610Z,1.76
2019-02-12T00:58:44.620Z,1.86
2019-02-12T01:04:39.562Z,1.19
2019-02-12T01:10:34.550Z,1.27
2019-02-12T01:16:29.572Z,1.36
2019-02-12T01:22:24.566Z,0.72
2019-02-12T01:28:19.574Z,0.42
2019-02-12T01:34:14.605Z,4.83
2019-02-12T01:40:09.576Z,3.58
2019-02-12T01:46:04.579Z,3.05
2019-02-12T01:51:59.601Z,5.25
2019-02-12T01:57:54.607Z,5.95
2019-02-12T02:03:49.645Z,4.77
2019-02-12T02:09:44.605Z,6.77
2019-02-12T02:15:39.585Z,2.97
2019-02-12T02:21:34.588Z,1.78
2019-02-12T02:27:29.601Z,2.16
2019-02-12T02:33:24.653Z,2.91
2019-02-12T02:39:19.613Z,1.75
2019-02-12T02:45:14.650Z,1.63
2019-02-12T02:51:09.644Z,1.1
2019-02-12T02:57:04.625Z,1.1
2019-02-12T03:02:59.607Z,1.2
2019-02-12T03:08:54.612Z,1.46
2019-02-12T03:14:49.639Z,2.06
2019-02-12T03:20:44.662Z,2.67
2019-02-12T03:26:39.627Z,2.3
2019-02-12T03:32:34.657Z,1.79
2019-02-12T03:38:29.664Z,1.43
2019-02-12T03:44:24.632Z,1.08
2019-02-12T03:50:19.642Z,1.37
2019-02-12T03:56:14.631Z,1.57
2019-02-12T04:02:09.642Z,1.32
2019-02-12T04:08:04.673Z,1.46
2019-02-12T04:13:59.654Z,1.5
2019-02-12T04:19:54.698Z,1.47
2019-02-12T04:25:49.692Z,1.37
2019-02-12T04:31:44.645Z,1.3
2019-02-12T04:37:39.693Z,1.4
2019-02-12T04:43:34.660Z,1.29
2019-02-12T04:49:29.680Z,1.37
2019-02-12T04:55:24.689Z,1.12
2019-02-12T05:01:19.666Z,1.32
2019-02-12T05:07:14.750Z,1.36
2019-02-12T05:13:09.688Z,2.03
2019-02-12T05:19:04.772Z,1.73
2019-02-12T05:24:59.698Z,1.44
2019-02-12T05:30:54.757Z,1.64
2019-02-12T05:36:49.702Z,2.02
2019-02-12T05:42:44.727Z,3.33
2019-02-12T05:48:39.736Z,4.13
2019-02-12T05:54:34.717Z,4.03
2019-02-12T06:00:29.711Z,1.94
2019-02-12T06:06:24.706Z,1.73
2019-02-12T06:12:19.735Z,3.28
2019-02-12T06:18:14.710Z,7.38
2019-02-12T06:24:09.719Z,9.03
2019-02-12T06:30:04.714Z,8.34
2019-02-12T06:35:59.755Z,6.39
2019-02-12T06:41:54.746Z,7.68
2019-02-12T06:47:49.740Z,8.29
2019-02-12T06:53:44.731Z,5
2019-02-12T06:59:39.722Z,6.64
2019-02-12T07:05:34.767Z,5.76
2019-02-12T07:11:29.735Z,5.39
2019-02-12T07:17:24.765Z,3.93
2019-02-12T07:23:21.284Z,5.03
2019-02-12T07:29:14.739Z,7.08
2019-02-12T07:35:09.767Z,6.58
2019-02-12T07:41:04.761Z,4.24
2019-02-12T07:46:59.817Z,5.56
2019-02-12T07:52:54.761Z,2.73
2019-02-12T07:58:49.777Z,3.07
2019-02-12T08:04:44.824Z,3.8
2019-02-12T08:10:39.769Z,3.33
2019-02-12T08:16:34.788Z,1.78
2019-02-12T08:22:29.764Z,4.37
2019-02-12T08:28:24.783Z,16.86
2019-02-12T08:34:19.790Z,18.45
2019-02-12T08:40:14.780Z,17.83
2019-02-12T08:46:09.812Z,13.78
2019-02-12T08:52:04.824Z,13.26
2019-02-12T08:57:59.780Z,15.39
2019-02-12T09:03:54.797Z,12.24
2019-02-12T09:09:49.794Z,12.3
2019-02-12T09:15:44.802Z,13.3
2019-02-12T09:21:39.813Z,15.14
2019-02-12T09:27:34.830Z,17.13
2019-02-12T09:33:29.842Z,29.87
2019-02-12T09:39:24.835Z,35.87
2019-02-12T09:45:19.825Z,16.51
2019-02-12T09:51:14.839Z,15.81
2019-02-12T09:57:09.821Z,13.85
2019-02-12T10:03:04.837Z,10.88
2019-02-12T10:08:59.845Z,9.85
2019-02-12T10:14:54.828Z,9.65
2019-02-12T10:20:49.830Z,8.75
2019-02-12T10:26:44.832Z,5.3
2019-02-12T10:32:39.833Z,2.48
2019-02-12T10:38:34.902Z,2.85
2019-02-12T10:44:29.866Z,1.87
2019-02-12T10:50:24.853Z,2.29
2019-02-12T10:56:19.861Z,3.8
2019-02-12T11:02:14.900Z,3.03
2019-02-12T11:08:09.876Z,2.67
2019-02-12T11:14:04.911Z,2.34
2019-02-12T11:19:59.885Z,2.85
2019-02-12T11:25:54.864Z,3.73
2019-02-12T11:31:49.952Z,5.53
2019-02-12T11:37:44.911Z,2.12
2019-02-12T11:43:39.932Z,1.87
2019-02-12T11:49:34.911Z,2.23
2019-02-12T11:55:29.915Z,2.3
2019-02-12T12:01:24.889Z,2.53
2019-02-12T12:07:19.899Z,3.31
2019-02-12T12:13:14.942Z,2.98
2019-02-12T12:19:09.924Z,2.5
2019-02-12T12:25:04.897Z,2.39
2019-02-12T12:30:59.926Z,2.55
2019-02-12T12:36:54.916Z,3.69
2019-02-12T12:42:49.937Z,4.01
2019-02-12T12:48:44.933Z,3.17
2019-02-12T12:54:39.930Z,2.91
2019-02-12T13:00:34.946Z,3.71
2019-02-12T13:06:29.960Z,6.78
2019-02-12T13:12:24.922Z,3.07
2019-02-12T13:18:19.949Z,5.31
2019-02-12T13:24:14.950Z,3.58
2019-02-12T13:30:09.945Z,2.52
2019-02-12T13:36:04.944Z,1.41
2019-02-12T13:41:59.954Z,1.73
2019-02-12T13:47:54.994Z,3.28
2019-02-12T13:53:49.980Z,2.76
2019-02-12T13:59:44.980Z,3.36
2019-02-12T14:05:42.034Z,1.77
2019-02-12T14:11:34.962Z,3.29
2019-02-12T14:17:29.971Z,5.43
2019-02-12T14:23:24.988Z,2.14
2019-02-12T14:29:19.966Z,2.71
2019-02-12T14:35:14.981Z,2.79
2019-02-12T14:41:09.987Z,2.34
2019-02-12T14:47:04.956Z,2
2019-02-12T14:52:59.998Z,2.18
2019-02-12T14:58:54.969Z,2.96
2019-02-12T15:04:50.017Z,2.2
2019-02-12T15:10:45.038Z,2.43
2019-02-12T15:16:40.011Z,3.03
2019-02-12T15:22:35.059Z,2.42
2019-02-12T15:28:30.005Z,2.79
2019-02-12T15:34:25.004Z,2.41
2019-02-12T15:40:20.030Z,2.68
2019-02-12T15:46:15.026Z,2.1
2019-02-12T15:52:10.055Z,1.88
2019-02-12T15:58:05.801Z,1.78
2019-02-12T16:04:00.199Z,5.47
2019-02-12T16:09:56.556Z,3.13
2019-02-12T16:15:50.043Z,1.72
2019-02-12T16:21:45.029Z,1.85
2019-02-12T16:27:40.032Z,5.86
2019-02-12T16:33:35.043Z,6.7
2019-02-12T16:39:30.049Z,5.97
2019-02-12T16:45:25.063Z,7.57
2019-02-12T16:51:20.080Z,7.37
2019-02-12T16:57:15.064Z,5.86
2019-02-12T17:03:10.067Z,7.91
2019-02-12T17:09:05.070Z,9.41
2019-02-12T17:15:00.057Z,7.64
2019-02-12T17:20:55.091Z,11.66
2019-02-12T17:26:50.067Z,11.64
2019-02-12T17:32:45.081Z,9.24
2019-02-12T17:38:40.088Z,8.86
2019-02-12T17:44:35.102Z,9.17
2019-02-12T17:50:30.080Z,7.46
2019-02-12T17:56:25.255Z,7.38
2019-02-12T18:02:20.083Z,8.36
2019-02-12T18:08:15.093Z,9.29
2019-02-12T18:14:10.123Z,16.22
2019-02-12T18:20:05.117Z,9.48
2019-02-12T18:26:00.106Z,15.37
2019-02-12T18:31:55.130Z,12.26
2019-02-12T18:37:50.107Z,18.81
2019-02-12T18:43:45.118Z,23.7
2019-02-12T18:49:40.129Z,36.19
2019-02-12T18:55:35.124Z,33.62
2019-02-12T19:01:30.131Z,19.61
2019-02-12T19:07:25.125Z,18.74
2019-02-12T19:13:20.185Z,12.52
2019-02-12T19:19:15.134Z,20.06
2019-02-12T19:25:10.147Z,27.44
2019-02-12T19:31:05.141Z,20.8
2019-02-12T19:37:00.187Z,15.63
2019-02-12T19:42:55.161Z,16.14
2019-02-12T19:48:50.182Z,16.89
2019-02-12T19:54:45.197Z,29.95
2019-02-12T20:00:40.151Z,21.31
2019-02-12T20:06:35.177Z,22.01
2019-02-12T20:12:30.157Z,11.42
2019-02-12T20:18:25.191Z,15.86
2019-02-12T20:24:20.241Z,16.45
2019-02-12T20:30:15.156Z,16.43
2019-02-12T20:36:10.195Z,15.37
2019-02-12T20:42:05.216Z,26.77
2019-02-12T20:48:00.191Z,20.47
2019-02-12T20:53:55.188Z,24.65
2019-02-12T20:59:50.164Z,21.32
2019-02-12T21:05:45.209Z,16.47
2019-02-12T21:11:40.189Z,19.18
2019-02-12T21:17:35.187Z,11.68
2019-02-12T21:23:30.235Z,10.85
2019-02-12T21:29:25.206Z,11.07
2019-02-12T21:35:20.199Z,12.53
2019-02-12T21:41:15.219Z,14.54
2019-02-12T21:47:10.197Z,13.9
2019-02-12T21:53:05.234Z,12.47
2019-02-12T21:59:00.204Z,13.24
2019-02-12T22:04:55.252Z,9.63
2019-02-12T22:10:50.281Z,5.5
2019-02-12T22:16:45.230Z,6.03
2019-02-12T22:22:40.242Z,5.93
2019-02-12T22:28:35.259Z,6.71
2019-02-12T22:34:30.232Z,7.14
2019-02-12T22:40:25.235Z,4.03
2019-02-12T22:46:20.266Z,8.15
2019-02-12T22:52:15.253Z,13.42
2019-02-12T22:58:10.244Z,9.72
2019-02-12T23:04:05.241Z,9.61
2019-02-12T23:10:00.319Z,9.34
2019-02-12T23:15:55.266Z,26.3
2019-02-12T23:21:50.259Z,7.27
2019-02-12T23:27:45.264Z,5.2
2019-02-12T23:33:40.290Z,6.49
2019-02-12T23:39:35.270Z,10.97
2019-02-12T23:45:30.293Z,7.32
2019-02-12T23:51:25.327Z,11.92
2019-02-12T23:57:20.276Z,8.83
